sensor_id;sensor_type;location;lat;lon;timestamp;P1;durP1;ratioP1;P2;durP2;ratioP2
3653;SDS011;70277;54.302;10.064;2023-05-29T00:02:03;17.38;;;2.15;;
3653;SDS011;70277;54.302;10.064;2023-05-29T00:04:30;14.35;;;2.13;;
3653;SDS011;70277;54.302;10.064;2023-05-29T00:06:57;16.00;;;2.17;;
3653;SDS011;70277;54.302;10.064;2023-05-29T00:09:23;20.35;;;3.15;;
3653;SDS011;70277;54.302;10.064;2023-05-29T00:11:50;11.23;;;1.95;;
3653;SDS011;70277;54.302;10.064;2023-05-29T00:14:19;19.42;;;2.85;;
3653;SDS011;70277;54.302;10.064;2023-05-29T00:16:46;15.55;;;2.03;;
3653;SDS011;70277;54.302;10.064;2023-05-29T00:19:16;10.25;;;2.33;;
3653;SDS011;70277;54.302;10.064;2023-05-29T00:21:43;11.75;;;2.83;;
3653;SDS011;70277;54.302;10.064;2023-05-29T00:24:09;11.57;;;2.53;;
3653;SDS011;70277;54.302;10.064;2023-05-29T00:26:36;8.93;;;2.55;;
3653;SDS011;70277;54.302;10.064;2023-05-29T00:29:02;16.95;;;1.98;;
3653;SDS011;70277;54.302;10.064;2023-05-29T00:31:29;11.65;;;2.05;;
3653;SDS011;70277;54.302;10.064;2023-05-29T00:33:56;15.02;;;2.38;;
3653;SDS011;70277;54.302;10.064;2023-05-29T00:36:23;8.38;;;1.83;;
3653;SDS011;70277;54.302;10.064;2023-05-29T00:38:49;12.52;;;2.03;;
3653;SDS011;70277;54.302;10.064;2023-05-29T00:41:16;18.98;;;2.88;;
3653;SDS011;70277;54.302;10.064;2023-05-29T00:43:43;18.15;;;2.30;;
3653;SDS011;70277;54.302;10.064;2023-05-29T00:46:09;9.27;;;2.20;;
3653;SDS011;70277;54.302;10.064;2023-05-29T00:48:40;13.43;;;2.30;;
3653;SDS011;70277;54.302;10.064;2023-05-29T00:51:09;13.13;;;2.30;;
3653;SDS011;70277;54.302;10.064;2023-05-29T00:53:37;15.93;;;2.03;;
3653;SDS011;70277;54.302;10.064;2023-05-29T00:56:07;13.33;;;2.97;;
3653;SDS011;70277;54.302;10.064;2023-05-29T00:58:34;12.63;;;1.63;;
3653;SDS011;70277;54.302;10.064;2023-05-29T01:01:01;12.25;;;2.25;;
3653;SDS011;70277;54.302;10.064;2023-05-29T01:03:29;18.50;;;2.00;;
3653;SDS011;70277;54.302;10.064;2023-05-29T01:05:58;16.38;;;1.90;;
3653;SDS011;70277;54.302;10.064;2023-05-29T01:08:25;25.58;;;3.08;;
3653;SDS011;70277;54.302;10.064;2023-05-29T01:10:52;15.40;;;2.38;;
3653;SDS011;70277;54.302;10.064;2023-05-29T01:13:27;15.55;;;2.53;;
3653;SDS011;70277;54.302;10.064;2023-05-29T01:16:44;15.23;;;2.30;;
3653;SDS011;70277;54.302;10.064;2023-05-29T01:24:45;9.23;;;1.73;;
3653;SDS011;70277;54.302;10.064;2023-05-29T01:27:17;14.65;;;2.22;;
3653;SDS011;70277;54.302;10.064;2023-05-29T01:29:45;21.40;;;2.60;;
3653;SDS011;70277;54.302;10.064;2023-05-29T01:32:13;10.55;;;2.08;;
3653;SDS011;70277;54.302;10.064;2023-05-29T01:34:40;15.98;;;2.28;;
3653;SDS011;70277;54.302;10.064;2023-05-29T01:37:07;11.50;;;1.75;;
3653;SDS011;70277;54.302;10.064;2023-05-29T01:39:33;19.95;;;3.08;;
3653;SDS011;70277;54.302;10.064;2023-05-29T01:42:02;13.07;;;2.00;;
3653;SDS011;70277;54.302;10.064;2023-05-29T01:44:29;13.90;;;2.33;;
3653;SDS011;70277;54.302;10.064;2023-05-29T01:46:56;9.50;;;2.00;;
3653;SDS011;70277;54.302;10.064;2023-05-29T01:49:24;17.08;;;2.75;;
3653;SDS011;70277;54.302;10.064;2023-05-29T01:51:52;13.48;;;1.73;;
3653;SDS011;70277;54.302;10.064;2023-05-29T01:54:19;10.25;;;2.25;;
3653;SDS011;70277;54.302;10.064;2023-05-29T01:56:46;7.50;;;1.85;;
3653;SDS011;70277;54.302;10.064;2023-05-29T01:59:14;7.45;;;1.95;;
3653;SDS011;70277;54.302;10.064;2023-05-29T02:01:41;13.70;;;2.58;;
3653;SDS011;70277;54.302;10.064;2023-05-29T02:04:08;12.07;;;1.80;;
3653;SDS011;70277;54.302;10.064;2023-05-29T02:06:34;5.82;;;1.63;;
3653;SDS011;70277;54.302;10.064;2023-05-29T02:09:01;13.68;;;2.40;;
3653;SDS011;70277;54.302;10.064;2023-05-29T02:11:27;10.45;;;1.83;;
3653;SDS011;70277;54.302;10.064;2023-05-29T02:13:54;12.32;;;1.83;;
3653;SDS011;70277;54.302;10.064;2023-05-29T02:16:20;9.55;;;1.90;;
3653;SDS011;70277;54.302;10.064;2023-05-29T02:18:47;13.80;;;2.38;;
3653;SDS011;70277;54.302;10.064;2023-05-29T02:21:13;11.90;;;2.22;;
3653;SDS011;70277;54.302;10.064;2023-05-29T02:23:41;19.63;;;3.08;;
3653;SDS011;70277;54.302;10.064;2023-05-29T02:26:07;4.97;;;1.48;;
3653;SDS011;70277;54.302;10.064;2023-05-29T02:28:34;12.43;;;2.20;;
3653;SDS011;70277;54.302;10.064;2023-05-29T02:31:02;13.90;;;1.83;;
3653;SDS011;70277;54.302;10.064;2023-05-29T02:33:29;10.45;;;1.92;;
3653;SDS011;70277;54.302;10.064;2023-05-29T02:35:56;13.07;;;2.00;;
3653;SDS011;70277;54.302;10.064;2023-05-29T02:38:22;12.20;;;2.65;;
3653;SDS011;70277;54.302;10.064;2023-05-29T02:40:49;10.73;;;1.60;;
3653;SDS011;70277;54.302;10.064;2023-05-29T02:43:16;14.68;;;2.05;;
3653;SDS011;70277;54.302;10.064;2023-05-29T02:45:42;12.40;;;2.20;;
3653;SDS011;70277;54.302;10.064;2023-05-29T02:48:09;8.35;;;2.17;;
3653;SDS011;70277;54.302;10.064;2023-05-29T02:50:35;12.52;;;1.85;;
3653;SDS011;70277;54.302;10.064;2023-05-29T02:53:02;24.27;;;2.60;;
3653;SDS011;70277;54.302;10.064;2023-05-29T02:55:28;9.00;;;2.08;;
3653;SDS011;70277;54.302;10.064;2023-05-29T02:57:55;12.45;;;2.22;;
3653;SDS011;70277;54.302;10.064;2023-05-29T03:00:22;9.52;;;1.65;;
3653;SDS011;70277;54.302;10.064;2023-05-29T03:02:48;10.38;;;2.40;;
3653;SDS011;70277;54.302;10.064;2023-05-29T03:05:15;11.38;;;2.00;;
3653;SDS011;70277;54.302;10.064;2023-05-29T03:07:43;12.63;;;2.08;;
3653;SDS011;70277;54.302;10.064;2023-05-29T03:10:10;15.88;;;2.63;;
3653;SDS011;70277;54.302;10.064;2023-05-29T03:12:37;13.00;;;2.17;;
3653;SDS011;70277;54.302;10.064;2023-05-29T03:15:04;11.98;;;2.20;;
3653;SDS011;70277;54.302;10.064;2023-05-29T03:17:31;11.40;;;1.90;;
3653;SDS011;70277;54.302;10.064;2023-05-29T03:19:57;15.45;;;1.92;;
3653;SDS011;70277;54.302;10.064;2023-05-29T03:22:24;11.13;;;1.92;;
3653;SDS011;70277;54.302;10.064;2023-05-29T03:24:50;13.88;;;1.70;;
3653;SDS011;70277;54.302;10.064;2023-05-29T03:27:17;6.50;;;1.65;;
3653;SDS011;70277;54.302;10.064;2023-05-29T03:29:44;10.82;;;1.60;;
3653;SDS011;70277;54.302;10.064;2023-05-29T03:32:10;15.60;;;1.70;;
3653;SDS011;70277;54.302;10.064;2023-05-29T03:34:37;11.88;;;1.95;;
3653;SDS011;70277;54.302;10.064;2023-05-29T03:37:04;15.50;;;2.30;;
3653;SDS011;70277;54.302;10.064;2023-05-29T03:39:30;7.20;;;1.52;;
3653;SDS011;70277;54.302;10.064;2023-05-29T03:41:56;16.95;;;2.30;;
3653;SDS011;70277;54.302;10.064;2023-05-29T03:44:23;12.68;;;1.80;;
3653;SDS011;70277;54.302;10.064;2023-05-29T03:46:50;10.85;;;2.05;;
3653;SDS011;70277;54.302;10.064;2023-05-29T03:49:17;11.70;;;2.10;;
3653;SDS011;70277;54.302;10.064;2023-05-29T03:51:44;11.10;;;1.85;;
3653;SDS011;70277;54.302;10.064;2023-05-29T03:54:10;11.98;;;2.35;;
3653;SDS011;70277;54.302;10.064;2023-05-29T03:56:37;17.30;;;2.65;;
3653;SDS011;70277;54.302;10.064;2023-05-29T03:59:03;15.55;;;1.83;;
3653;SDS011;70277;54.302;10.064;2023-05-29T04:01:30;12.52;;;2.35;;
3653;SDS011;70277;54.302;10.064;2023-05-29T04:03:56;16.13;;;2.40;;
3653;SDS011;70277;54.302;10.064;2023-05-29T04:06:24;11.45;;;2.13;;
3653;SDS011;70277;54.302;10.064;2023-05-29T04:08:51;11.25;;;1.85;;
3653;SDS011;70277;54.302;10.064;2023-05-29T04:11:17;16.45;;;2.72;;
3653;SDS011;70277;54.302;10.064;2023-05-29T04:13:47;13.00;;;2.40;;
3653;SDS011;70277;54.302;10.064;2023-05-29T04:16:14;10.80;;;1.95;;
3653;SDS011;70277;54.302;10.064;2023-05-29T04:18:41;16.27;;;2.65;;
3653;SDS011;70277;54.302;10.064;2023-05-29T04:21:08;12.85;;;2.22;;
3653;SDS011;70277;54.302;10.064;2023-05-29T04:23:34;15.60;;;2.42;;
3653;SDS011;70277;54.302;10.064;2023-05-29T04:26:01;13.05;;;2.47;;
3653;SDS011;70277;54.302;10.064;2023-05-29T04:28:28;20.92;;;2.95;;
3653;SDS011;70277;54.302;10.064;2023-05-29T04:30:54;14.98;;;3.35;;
3653;SDS011;70277;54.302;10.064;2023-05-29T04:33:22;22.13;;;3.90;;
3653;SDS011;70277;54.302;10.064;2023-05-29T04:35:50;15.70;;;2.30;;
3653;SDS011;70277;54.302;10.064;2023-05-29T04:38:16;13.20;;;2.75;;
3653;SDS011;70277;54.302;10.064;2023-05-29T04:40:43;23.77;;;3.03;;
3653;SDS011;70277;54.302;10.064;2023-05-29T04:43:10;13.75;;;2.35;;
3653;SDS011;70277;54.302;10.064;2023-05-29T04:45:36;14.27;;;2.90;;
3653;SDS011;70277;54.302;10.064;2023-05-29T04:48:04;17.38;;;2.28;;
3653;SDS011;70277;54.302;10.064;2023-05-29T04:50:30;15.85;;;3.50;;
3653;SDS011;70277;54.302;10.064;2023-05-29T04:52:57;17.42;;;3.17;;
3653;SDS011;70277;54.302;10.064;2023-05-29T04:55:24;13.75;;;2.55;;
3653;SDS011;70277;54.302;10.064;2023-05-29T04:57:50;17.70;;;3.05;;
3653;SDS011;70277;54.302;10.064;2023-05-29T05:00:17;17.63;;;2.65;;
3653;SDS011;70277;54.302;10.064;2023-05-29T05:02:45;28.95;;;3.40;;
3653;SDS011;70277;54.302;10.064;2023-05-29T05:05:12;16.10;;;2.92;;
3653;SDS011;70277;54.302;10.064;2023-05-29T05:07:38;17.67;;;2.38;;
3653;SDS011;70277;54.302;10.064;2023-05-29T05:10:05;16.67;;;2.53;;
3653;SDS011;70277;54.302;10.064;2023-05-29T05:12:32;20.48;;;3.67;;
3653;SDS011;70277;54.302;10.064;2023-05-29T05:14:59;18.42;;;3.08;;
3653;SDS011;70277;54.302;10.064;2023-05-29T05:17:25;20.90;;;3.53;;
3653;SDS011;70277;54.302;10.064;2023-05-29T05:19:52;22.02;;;2.88;;
3653;SDS011;70277;54.302;10.064;2023-05-29T05:22:19;26.83;;;3.20;;
3653;SDS011;70277;54.302;10.064;2023-05-29T05:24:46;13.82;;;2.95;;
3653;SDS011;70277;54.302;10.064;2023-05-29T05:27:13;16.80;;;2.95;;
3653;SDS011;70277;54.302;10.064;2023-05-29T05:29:39;23.17;;;3.53;;
3653;SDS011;70277;54.302;10.064;2023-05-29T05:32:06;16.42;;;2.97;;
3653;SDS011;70277;54.302;10.064;2023-05-29T05:34:33;23.83;;;3.25;;
3653;SDS011;70277;54.302;10.064;2023-05-29T05:36:59;18.00;;;3.25;;
3653;SDS011;70277;54.302;10.064;2023-05-29T05:39:26;17.27;;;3.08;;
3653;SDS011;70277;54.302;10.064;2023-05-29T05:41:53;25.02;;;3.42;;
3653;SDS011;70277;54.302;10.064;2023-05-29T05:44:19;22.77;;;3.60;;
3653;SDS011;70277;54.302;10.064;2023-05-29T05:46:46;19.92;;;3.00;;
3653;SDS011;70277;54.302;10.064;2023-05-29T05:49:13;22.25;;;3.30;;
3653;SDS011;70277;54.302;10.064;2023-05-29T05:51:40;29.75;;;3.85;;
3653;SDS011;70277;54.302;10.064;2023-05-29T05:54:06;21.65;;;3.05;;
3653;SDS011;70277;54.302;10.064;2023-05-29T05:56:33;23.80;;;3.50;;
3653;SDS011;70277;54.302;10.064;2023-05-29T05:58:59;26.55;;;3.83;;
3653;SDS011;70277;54.302;10.064;2023-05-29T06:01:26;23.23;;;4.28;;
3653;SDS011;70277;54.302;10.064;2023-05-29T06:03:53;21.85;;;3.13;;
3653;SDS011;70277;54.302;10.064;2023-05-29T06:06:20;17.33;;;3.33;;
3653;SDS011;70277;54.302;10.064;2023-05-29T06:08:47;27.25;;;3.55;;
3653;SDS011;70277;54.302;10.064;2023-05-29T06:11:13;30.85;;;4.05;;
3653;SDS011;70277;54.302;10.064;2023-05-29T06:13:40;29.42;;;5.18;;
3653;SDS011;70277;54.302;10.064;2023-05-29T06:16:06;29.70;;;4.22;;
3653;SDS011;70277;54.302;10.064;2023-05-29T06:18:34;26.45;;;3.50;;
3653;SDS011;70277;54.302;10.064;2023-05-29T06:21:00;29.58;;;3.83;;
3653;SDS011;70277;54.302;10.064;2023-05-29T06:23:27;25.85;;;3.60;;
3653;SDS011;70277;54.302;10.064;2023-05-29T06:25:54;26.67;;;4.00;;
3653;SDS011;70277;54.302;10.064;2023-05-29T06:28:20;30.08;;;4.05;;
3653;SDS011;70277;54.302;10.064;2023-05-29T06:30:47;19.25;;;3.58;;
3653;SDS011;70277;54.302;10.064;2023-05-29T06:33:13;16.42;;;3.22;;
3653;SDS011;70277;54.302;10.064;2023-05-29T06:35:40;28.60;;;4.40;;
3653;SDS011;70277;54.302;10.064;2023-05-29T06:38:06;31.75;;;3.95;;
3653;SDS011;70277;54.302;10.064;2023-05-29T06:40:33;23.05;;;3.55;;
3653;SDS011;70277;54.302;10.064;2023-05-29T06:42:59;24.00;;;4.00;;
3653;SDS011;70277;54.302;10.064;2023-05-29T06:45:26;28.15;;;4.43;;
3653;SDS011;70277;54.302;10.064;2023-05-29T06:47:53;21.80;;;3.83;;
3653;SDS011;70277;54.302;10.064;2023-05-29T06:50:21;22.52;;;4.30;;
3653;SDS011;70277;54.302;10.064;2023-05-29T06:52:48;27.25;;;4.50;;
3653;SDS011;70277;54.302;10.064;2023-05-29T06:55:15;24.05;;;3.70;;
3653;SDS011;70277;54.302;10.064;2023-05-29T06:57:42;22.42;;;3.95;;
3653;SDS011;70277;54.302;10.064;2023-05-29T07:00:08;27.30;;;3.97;;
3653;SDS011;70277;54.302;10.064;2023-05-29T07:02:37;21.90;;;3.67;;
3653;SDS011;70277;54.302;10.064;2023-05-29T07:05:04;25.52;;;3.90;;
3653;SDS011;70277;54.302;10.064;2023-05-29T07:07:31;18.42;;;3.58;;
3653;SDS011;70277;54.302;10.064;2023-05-29T07:09:57;19.38;;;3.53;;
3653;SDS011;70277;54.302;10.064;2023-05-29T07:12:24;27.40;;;3.92;;
3653;SDS011;70277;54.302;10.064;2023-05-29T07:14:50;29.38;;;4.63;;
3653;SDS011;70277;54.302;10.064;2023-05-29T07:17:17;26.63;;;3.80;;
3653;SDS011;70277;54.302;10.064;2023-05-29T07:19:44;20.67;;;3.58;;
3653;SDS011;70277;54.302;10.064;2023-05-29T07:22:11;19.70;;;3.75;;
3653;SDS011;70277;54.302;10.064;2023-05-29T07:24:37;20.55;;;3.72;;
3653;SDS011;70277;54.302;10.064;2023-05-29T07:27:04;27.23;;;4.47;;
3653;SDS011;70277;54.302;10.064;2023-05-29T07:29:31;21.80;;;3.85;;
3653;SDS011;70277;54.302;10.064;2023-05-29T07:31:58;17.60;;;3.38;;
3653;SDS011;70277;54.302;10.064;2023-05-29T07:34:25;21.48;;;3.85;;
3653;SDS011;70277;54.302;10.064;2023-05-29T07:36:59;15.00;;;3.00;;
3653;SDS011;70277;54.302;10.064;2023-05-29T07:39:28;23.95;;;4.18;;
3653;SDS011;70277;54.302;10.064;2023-05-29T07:41:55;23.35;;;4.35;;
3653;SDS011;70277;54.302;10.064;2023-05-29T07:44:22;19.08;;;3.65;;
3653;SDS011;70277;54.302;10.064;2023-05-29T07:46:49;24.25;;;3.70;;
3653;SDS011;70277;54.302;10.064;2023-05-29T07:49:16;18.05;;;4.03;;
3653;SDS011;70277;54.302;10.064;2023-05-29T07:51:42;23.55;;;3.72;;
3653;SDS011;70277;54.302;10.064;2023-05-29T07:54:09;24.02;;;3.88;;
3653;SDS011;70277;54.302;10.064;2023-05-29T07:56:35;15.85;;;3.40;;
3653;SDS011;70277;54.302;10.064;2023-05-29T07:59:02;20.73;;;3.90;;
3653;SDS011;70277;54.302;10.064;2023-05-29T08:01:29;21.00;;;3.72;;
3653;SDS011;70277;54.302;10.064;2023-05-29T08:03:56;18.50;;;3.40;;
3653;SDS011;70277;54.302;10.064;2023-05-29T08:06:23;15.80;;;3.42;;
3653;SDS011;70277;54.302;10.064;2023-05-29T08:08:49;20.88;;;3.67;;
3653;SDS011;70277;54.302;10.064;2023-05-29T08:11:18;21.35;;;3.45;;
3653;SDS011;70277;54.302;10.064;2023-05-29T08:13:45;15.82;;;3.13;;
3653;SDS011;70277;54.302;10.064;2023-05-29T08:16:12;17.83;;;3.40;;
3653;SDS011;70277;54.302;10.064;2023-05-29T08:18:40;14.95;;;3.22;;
3653;SDS011;70277;54.302;10.064;2023-05-29T08:21:07;15.25;;;3.20;;
3653;SDS011;70277;54.302;10.064;2023-05-29T08:23:35;23.10;;;3.47;;
3653;SDS011;70277;54.302;10.064;2023-05-29T08:26:01;16.25;;;3.35;;
3653;SDS011;70277;54.302;10.064;2023-05-29T08:28:29;15.88;;;3.40;;
3653;SDS011;70277;54.302;10.064;2023-05-29T08:30:56;15.55;;;2.80;;
3653;SDS011;70277;54.302;10.064;2023-05-29T08:33:22;13.45;;;2.83;;
3653;SDS011;70277;54.302;10.064;2023-05-29T08:35:49;13.68;;;3.00;;
3653;SDS011;70277;54.302;10.064;2023-05-29T08:38:15;13.20;;;2.78;;
3653;SDS011;70277;54.302;10.064;2023-05-29T08:40:41;16.80;;;3.15;;
3653;SDS011;70277;54.302;10.064;2023-05-29T08:45:42;13.32;;;3.20;;
3653;SDS011;70277;54.302;10.064;2023-05-29T08:48:10;12.57;;;2.85;;
3653;SDS011;70277;54.302;10.064;2023-05-29T08:50:43;16.35;;;3.28;;
3653;SDS011;70277;54.302;10.064;2023-05-29T08:53:15;11.75;;;2.65;;
3653;SDS011;70277;54.302;10.064;2023-05-29T08:55:41;13.25;;;3.20;;
3653;SDS011;70277;54.302;10.064;2023-05-29T08:58:08;13.98;;;3.05;;
3653;SDS011;70277;54.302;10.064;2023-05-29T09:00:37;6.03;;;2.67;;
3653;SDS011;70277;54.302;10.064;2023-05-29T09:03:04;9.20;;;2.60;;
3653;SDS011;70277;54.302;10.064;2023-05-29T09:05:31;10.93;;;2.20;;
3653;SDS011;70277;54.302;10.064;2023-05-29T09:07:58;11.88;;;2.80;;
3653;SDS011;70277;54.302;10.064;2023-05-29T09:10:26;15.02;;;2.70;;
3653;SDS011;70277;54.302;10.064;2023-05-29T09:12:53;7.88;;;2.15;;
3653;SDS011;70277;54.302;10.064;2023-05-29T09:15:20;17.92;;;3.00;;
3653;SDS011;70277;54.302;10.064;2023-05-29T09:20:20;8.10;;;2.17;;
3653;SDS011;70277;54.302;10.064;2023-05-29T09:22:55;11.60;;;2.80;;
3653;SDS011;70277;54.302;10.064;2023-05-29T09:25:32;11.63;;;2.72;;
3653;SDS011;70277;54.302;10.064;2023-05-29T09:28:05;8.23;;;2.72;;
3653;SDS011;70277;54.302;10.064;2023-05-29T09:30:34;11.18;;;3.17;;
3653;SDS011;70277;54.302;10.064;2023-05-29T09:33:09;11.73;;;3.08;;
3653;SDS011;70277;54.302;10.064;2023-05-29T09:35:38;10.02;;;2.72;;
3653;SDS011;70277;54.302;10.064;2023-05-29T09:38:06;10.48;;;2.40;;
3653;SDS011;70277;54.302;10.064;2023-05-29T09:40:35;14.93;;;3.75;;
3653;SDS011;70277;54.302;10.064;2023-05-29T09:43:03;11.48;;;2.53;;
3653;SDS011;70277;54.302;10.064;2023-05-29T09:45:30;15.43;;;3.38;;
3653;SDS011;70277;54.302;10.064;2023-05-29T09:47:57;13.60;;;2.67;;
3653;SDS011;70277;54.302;10.064;2023-05-29T09:50:25;10.85;;;2.78;;
3653;SDS011;70277;54.302;10.064;2023-05-29T09:52:52;12.00;;;2.85;;
3653;SDS011;70277;54.302;10.064;2023-05-29T09:55:20;13.32;;;2.92;;
3653;SDS011;70277;54.302;10.064;2023-05-29T09:57:47;11.13;;;2.53;;
3653;SDS011;70277;54.302;10.064;2023-05-29T10:00:18;14.25;;;2.83;;
3653;SDS011;70277;54.302;10.064;2023-05-29T10:02:45;7.18;;;2.33;;
3653;SDS011;70277;54.302;10.064;2023-05-29T10:05:15;14.05;;;2.88;;
3653;SDS011;70277;54.302;10.064;2023-05-29T10:07:46;9.30;;;2.63;;
3653;SDS011;70277;54.302;10.064;2023-05-29T10:10:15;13.93;;;2.78;;
3653;SDS011;70277;54.302;10.064;2023-05-29T10:12:45;7.95;;;2.08;;
3653;SDS011;70277;54.302;10.064;2023-05-29T10:15:15;6.68;;;2.38;;
3653;SDS011;70277;54.302;10.064;2023-05-29T10:17:51;9.73;;;2.50;;
3653;SDS011;70277;54.302;10.064;2023-05-29T10:20:39;8.82;;;2.50;;
3653;SDS011;70277;54.302;10.064;2023-05-29T10:23:09;6.05;;;2.70;;
3653;SDS011;70277;54.302;10.064;2023-05-29T10:25:37;5.85;;;2.40;;
3653;SDS011;70277;54.302;10.064;2023-05-29T10:28:07;5.82;;;2.33;;
3653;SDS011;70277;54.302;10.064;2023-05-29T10:35:44;5.97;;;2.13;;
3653;SDS011;70277;54.302;10.064;2023-05-29T10:38:14;9.93;;;2.47;;
3653;SDS011;70277;54.302;10.064;2023-05-29T10:40:45;7.55;;;2.30;;
3653;SDS011;70277;54.302;10.064;2023-05-29T10:43:33;8.68;;;2.20;;
3653;SDS011;70277;54.302;10.064;2023-05-29T10:46:01;8.13;;;2.30;;
3653;SDS011;70277;54.302;10.064;2023-05-29T10:48:38;7.97;;;2.10;;
3653;SDS011;70277;54.302;10.064;2023-05-29T10:51:07;6.88;;;2.30;;
3653;SDS011;70277;54.302;10.064;2023-05-29T10:53:35;11.68;;;2.63;;
3653;SDS011;70277;54.302;10.064;2023-05-29T10:56:14;12.45;;;2.55;;
3653;SDS011;70277;54.302;10.064;2023-05-29T10:58:42;11.88;;;2.45;;
3653;SDS011;70277;54.302;10.064;2023-05-29T11:01:09;10.00;;;2.72;;
3653;SDS011;70277;54.302;10.064;2023-05-29T11:03:35;7.72;;;2.92;;
3653;SDS011;70277;54.302;10.064;2023-05-29T11:06:06;14.98;;;2.95;;
3653;SDS011;70277;54.302;10.064;2023-05-29T11:08:43;9.88;;;2.80;;
3653;SDS011;70277;54.302;10.064;2023-05-29T11:11:14;10.68;;;2.78;;
3653;SDS011;70277;54.302;10.064;2023-05-29T11:13:50;7.10;;;2.35;;
3653;SDS011;70277;54.302;10.064;2023-05-29T11:18:57;8.90;;;2.50;;
3653;SDS011;70277;54.302;10.064;2023-05-29T11:22:05;8.48;;;2.40;;
3653;SDS011;70277;54.302;10.064;2023-05-29T11:24:25;9.45;;;2.50;;
3653;SDS011;70277;54.302;10.064;2023-05-29T11:26:54;6.13;;;1.98;;
3653;SDS011;70277;54.302;10.064;2023-05-29T11:29:26;9.45;;;2.42;;
3653;SDS011;70277;54.302;10.064;2023-05-29T11:31:58;8.55;;;2.25;;
3653;SDS011;70277;54.302;10.064;2023-05-29T11:34:29;11.00;;;2.53;;
3653;SDS011;70277;54.302;10.064;2023-05-29T11:36:58;14.98;;;2.40;;
3653;SDS011;70277;54.302;10.064;2023-05-29T11:39:25;6.85;;;2.42;;
3653;SDS011;70277;54.302;10.064;2023-05-29T11:41:52;14.15;;;2.53;;
3653;SDS011;70277;54.302;10.064;2023-05-29T11:44:19;9.15;;;2.50;;
3653;SDS011;70277;54.302;10.064;2023-05-29T11:46:46;10.75;;;2.88;;
3653;SDS011;70277;54.302;10.064;2023-05-29T11:49:12;8.98;;;2.35;;
3653;SDS011;70277;54.302;10.064;2023-05-29T11:51:41;8.95;;;2.25;;
3653;SDS011;70277;54.302;10.064;2023-05-29T11:54:08;10.27;;;2.97;;
3653;SDS011;70277;54.302;10.064;2023-05-29T11:56:36;7.57;;;1.98;;
3653;SDS011;70277;54.302;10.064;2023-05-29T11:59:10;11.35;;;2.35;;
3653;SDS011;70277;54.302;10.064;2023-05-29T12:01:37;7.00;;;1.92;;
3653;SDS011;70277;54.302;10.064;2023-05-29T12:04:13;8.80;;;2.65;;
3653;SDS011;70277;54.302;10.064;2023-05-29T12:06:40;10.05;;;3.05;;
3653;SDS011;70277;54.302;10.064;2023-05-29T12:09:08;6.90;;;2.00;;
3653;SDS011;70277;54.302;10.064;2023-05-29T12:11:35;6.22;;;2.15;;
3653;SDS011;70277;54.302;10.064;2023-05-29T12:14:02;10.38;;;2.55;;
3653;SDS011;70277;54.302;10.064;2023-05-29T12:16:29;6.45;;;2.00;;
3653;SDS011;70277;54.302;10.064;2023-05-29T12:18:58;6.57;;;2.50;;
3653;SDS011;70277;54.302;10.064;2023-05-29T12:21:26;9.90;;;2.22;;
3653;SDS011;70277;54.302;10.064;2023-05-29T12:23:53;3.70;;;1.95;;
3653;SDS011;70277;54.302;10.064;2023-05-29T12:26:39;8.73;;;2.53;;
3653;SDS011;70277;54.302;10.064;2023-05-29T12:29:05;7.80;;;2.20;;
3653;SDS011;70277;54.302;10.064;2023-05-29T12:31:32;5.78;;;2.28;;
3653;SDS011;70277;54.302;10.064;2023-05-29T12:34:10;11.00;;;2.60;;
3653;SDS011;70277;54.302;10.064;2023-05-29T12:36:41;9.05;;;2.50;;
3653;SDS011;70277;54.302;10.064;2023-05-29T12:39:11;7.28;;;2.45;;
3653;SDS011;70277;54.302;10.064;2023-05-29T12:41:38;8.40;;;2.40;;
3653;SDS011;70277;54.302;10.064;2023-05-29T12:44:06;9.43;;;2.50;;
3653;SDS011;70277;54.302;10.064;2023-05-29T12:46:41;21.52;;;2.50;;
3653;SDS011;70277;54.302;10.064;2023-05-29T12:49:15;5.10;;;2.05;;
3653;SDS011;70277;54.302;10.064;2023-05-29T12:51:44;7.75;;;2.53;;
3653;SDS011;70277;54.302;10.064;2023-05-29T12:54:12;9.93;;;2.20;;
3653;SDS011;70277;54.302;10.064;2023-05-29T12:56:40;8.43;;;2.08;;
3653;SDS011;70277;54.302;10.064;2023-05-29T12:59:07;11.20;;;2.97;;
3653;SDS011;70277;54.302;10.064;2023-05-29T13:01:34;11.32;;;2.30;;
3653;SDS011;70277;54.302;10.064;2023-05-29T13:04:03;5.15;;;1.92;;
3653;SDS011;70277;54.302;10.064;2023-05-29T13:06:34;9.48;;;2.45;;
3653;SDS011;70277;54.302;10.064;2023-05-29T13:09:01;8.23;;;2.05;;
3653;SDS011;70277;54.302;10.064;2023-05-29T13:11:28;4.68;;;2.10;;
3653;SDS011;70277;54.302;10.064;2023-05-29T13:13:54;4.25;;;2.08;;
3653;SDS011;70277;54.302;10.064;2023-05-29T13:16:21;6.60;;;2.45;;
3653;SDS011;70277;54.302;10.064;2023-05-29T13:18:48;9.10;;;2.60;;
3653;SDS011;70277;54.302;10.064;2023-05-29T13:21:14;8.10;;;2.60;;
3653;SDS011;70277;54.302;10.064;2023-05-29T13:23:41;14.95;;;2.70;;
3653;SDS011;70277;54.302;10.064;2023-05-29T13:26:07;7.53;;;2.17;;
3653;SDS011;70277;54.302;10.064;2023-05-29T13:28:34;4.85;;;1.90;;
3653;SDS011;70277;54.302;10.064;2023-05-29T13:31:00;7.85;;;2.35;;
3653;SDS011;70277;54.302;10.064;2023-05-29T13:33:27;10.63;;;2.60;;
3653;SDS011;70277;54.302;10.064;2023-05-29T13:35:53;9.60;;;2.83;;
3653;SDS011;70277;54.302;10.064;2023-05-29T13:38:23;7.53;;;3.00;;
3653;SDS011;70277;54.302;10.064;2023-05-29T13:40:49;9.95;;;2.33;;
3653;SDS011;70277;54.302;10.064;2023-05-29T13:43:16;14.18;;;2.60;;
3653;SDS011;70277;54.302;10.064;2023-05-29T13:45:43;5.68;;;2.10;;
3653;SDS011;70277;54.302;10.064;2023-05-29T13:48:09;7.07;;;2.08;;
3653;SDS011;70277;54.302;10.064;2023-05-29T13:50:36;9.25;;;2.58;;
3653;SDS011;70277;54.302;10.064;2023-05-29T13:53:03;7.40;;;2.25;;
3653;SDS011;70277;54.302;10.064;2023-05-29T13:55:29;9.80;;;2.28;;
3653;SDS011;70277;54.302;10.064;2023-05-29T13:57:56;4.60;;;1.90;;
3653;SDS011;70277;54.302;10.064;2023-05-29T14:00:24;15.63;;;2.60;;
3653;SDS011;70277;54.302;10.064;2023-05-29T14:02:50;9.95;;;2.30;;
3653;SDS011;70277;54.302;10.064;2023-05-29T14:05:17;7.43;;;1.98;;
3653;SDS011;70277;54.302;10.064;2023-05-29T14:07:44;7.05;;;2.63;;
3653;SDS011;70277;54.302;10.064;2023-05-29T14:10:11;8.60;;;2.35;;
3653;SDS011;70277;54.302;10.064;2023-05-29T14:12:38;10.77;;;2.70;;
3653;SDS011;70277;54.302;10.064;2023-05-29T14:15:05;6.18;;;2.15;;
3653;SDS011;70277;54.302;10.064;2023-05-29T14:17:32;7.93;;;3.53;;
3653;SDS011;70277;54.302;10.064;2023-05-29T14:19:58;4.63;;;2.10;;
3653;SDS011;70277;54.302;10.064;2023-05-29T14:22:27;8.68;;;2.03;;
3653;SDS011;70277;54.302;10.064;2023-05-29T14:24:54;10.05;;;2.20;;
3653;SDS011;70277;54.302;10.064;2023-05-29T14:27:22;10.30;;;2.10;;
3653;SDS011;70277;54.302;10.064;2023-05-29T14:29:49;5.80;;;2.50;;
3653;SDS011;70277;54.302;10.064;2023-05-29T14:32:15;8.45;;;2.40;;
3653;SDS011;70277;54.302;10.064;2023-05-29T14:34:42;8.32;;;2.47;;
3653;SDS011;70277;54.302;10.064;2023-05-29T14:37:08;6.95;;;2.45;;
3653;SDS011;70277;54.302;10.064;2023-05-29T14:39:35;8.30;;;2.40;;
3653;SDS011;70277;54.302;10.064;2023-05-29T14:42:01;20.10;;;8.50;;
3653;SDS011;70277;54.302;10.064;2023-05-29T14:44:28;14.65;;;5.55;;
3653;SDS011;70277;54.302;10.064;2023-05-29T14:46:54;22.02;;;13.73;;
3653;SDS011;70277;54.302;10.064;2023-05-29T14:49:22;8.30;;;3.83;;
3653;SDS011;70277;54.302;10.064;2023-05-29T14:51:49;7.07;;;3.50;;
3653;SDS011;70277;54.302;10.064;2023-05-29T14:54:16;9.77;;;2.25;;
3653;SDS011;70277;54.302;10.064;2023-05-29T14:56:42;9.25;;;2.40;;
3653;SDS011;70277;54.302;10.064;2023-05-29T14:59:09;9.63;;;2.45;;
3653;SDS011;70277;54.302;10.064;2023-05-29T15:01:35;9.50;;;2.45;;